Time;durP1;ratioP1;P1;durP2;ratioP2;P2;SDS_P1;SDS_P2;PMS_P1;PMS_P2;Temp;Humidity;BMP_temperature;BMP_pressure;BME280_temperature;BME280_humidity;BME280_pressure;Samples;Min_cycle;Max_cycle;Signal;HPM_P1;HPM_P2
2022/11/02 00:00:32;;;;;;;31.43;19.40;;;17.60;80.60;;;;;;5005387;28;20202;-69
2022/11/02 00:02:59;;;;;;;24.47;18.17;;;17.60;80.60;;;;;;5004702;28;20192;-68
2022/11/02 00:05:26;;;;;;;24.93;18.80;;;17.60;80.60;;;;;;5002973;28;20197;-68
2022/11/02 00:07:54;;;;;;;28.50;18.87;;;17.60;80.60;;;;;;5004398;28;20215;-68
2022/11/02 00:10:23;;;;;;;25.20;18.37;;;17.60;80.60;;;;;;5000586;28;20206;-68
2022/11/02 00:12:51;;;;;;;27.20;19.67;;;17.60;80.60;;;;;;5004632;28;20216;-69
2022/11/02 00:15:19;;;;;;;25.00;17.87;;;17.60;80.60;;;;;;5001501;28;20240;-69
2022/11/02 00:17:58;;;;;;;26.60;18.27;;;17.60;80.70;;;;;;4998366;28;20209;-69
2022/11/02 00:20:25;;;;;;;25.57;18.33;;;17.60;80.70;;;;;;5005089;28;20289;-69
2022/11/02 00:22:56;;;;;;;26.50;18.77;;;17.60;80.60;;;;;;5007346;28;20311;-68
2022/11/02 00:25:26;;;;;;;28.53;18.77;;;17.60;80.60;;;;;;5002492;28;20198;-68
2022/11/02 00:27:53;;;;;;;24.20;18.77;;;17.50;80.60;;;;;;5004486;28;20201;-69
2022/11/02 00:30:20;;;;;;;23.40;19.03;;;17.50;80.60;;;;;;5003123;28;20516;-69
2022/11/02 00:32:47;;;;;;;29.17;18.70;;;17.50;80.70;;;;;;5019612;28;20584;-69
2022/11/02 00:35:14;;;;;;;27.73;18.80;;;17.50;80.80;;;;;;5006324;28;20228;-69
2022/11/02 00:37:41;;;;;;;31.87;19.03;;;17.50;80.80;;;;;;5004949;28;20286;-69
2022/11/02 00:40:10;;;;;;;24.63;18.43;;;17.40;80.80;;;;;;5001565;28;20264;-69
2022/11/02 00:42:37;;;;;;;23.13;18.57;;;17.40;80.90;;;;;;5009061;28;20219;-69
2022/11/02 00:45:05;;;;;;;25.43;18.77;;;17.30;81.00;;;;;;5004176;28;20193;-69
2022/11/02 00:47:32;;;;;;;28.23;20.53;;;17.30;81.10;;;;;;5002136;28;20200;-69
2022/11/02 00:49:59;;;;;;;26.70;18.57;;;17.20;81.20;;;;;;5016974;28;20307;-69
2022/11/02 00:52:26;;;;;;;27.10;19.57;;;17.20;81.30;;;;;;5035313;28;20667;-69
2022/11/02 00:54:53;;;;;;;25.50;18.83;;;17.20;81.50;;;;;;5001376;28;20213;-69
2022/11/02 00:57:20;;;;;;;29.37;19.60;;;17.20;81.60;;;;;;5005647;28;20223;-69
2022/11/02 00:59:47;;;;;;;30.70;21.00;;;17.20;81.70;;;;;;5000628;28;20636;-69
2022/11/02 01:02:16;;;;;;;28.63;19.97;;;17.20;81.80;;;;;;5010525;28;20198;-69
2022/11/02 01:04:43;;;;;;;29.03;20.93;;;17.10;81.90;;;;;;5001509;28;20211;-69
2022/11/02 01:07:10;;;;;;;26.63;20.10;;;17.10;82.10;;;;;;5003989;28;20208;-69
2022/11/02 01:09:37;;;;;;;33.70;20.20;;;17.10;82.20;;;;;;5001742;28;20202;-69
2022/11/02 01:12:05;;;;;;;27.50;21.00;;;17.10;82.40;;;;;;5004091;28;20203;-69
2022/11/02 01:14:33;;;;;;;29.70;20.60;;;17.20;82.50;;;;;;5000535;28;20205;-69
2022/11/02 01:17:00;;;;;;;31.40;20.70;;;17.20;82.60;;;;;;4999000;28;20244;-69
2022/11/02 01:19:27;;;;;;;25.63;20.53;;;17.20;82.60;;;;;;5001438;28;20589;-69
2022/11/02 01:21:55;;;;;;;28.27;21.13;;;17.20;82.70;;;;;;5009152;28;20196;-69
2022/11/02 01:24:22;;;;;;;30.00;21.07;;;17.20;82.70;;;;;;5009839;28;20204;-69
2022/11/02 01:26:52;;;;;;;31.50;21.83;;;17.20;82.70;;;;;;5002104;28;20264;-69
2022/11/02 01:29:19;;;;;;;32.47;21.07;;;17.20;82.70;;;;;;5018735;28;20212;-69
2022/11/02 01:31:47;;;;;;;37.13;22.83;;;17.10;82.60;;;;;;5010378;28;20204;-69
2022/11/02 01:34:16;;;;;;;26.40;20.90;;;17.10;82.60;;;;;;5004360;28;20241;-69
2022/11/02 01:36:44;;;;;;;26.20;20.97;;;17.10;82.70;;;;;;5004116;28;20227;-69
2022/11/02 01:39:12;;;;;;;30.93;20.80;;;17.00;82.70;;;;;;5002246;28;20255;-69
2022/11/02 01:41:39;;;;;;;31.80;22.20;;;17.00;82.90;;;;;;4999088;28;20381;-69
2022/11/02 01:44:26;;;;;;;26.27;20.10;;;17.00;82.90;;;;;;5010640;28;20204;-69
2022/11/02 01:46:57;;;;;;;29.33;20.90;;;17.00;83.10;;;;;;4999389;28;20584;-69
2022/11/02 01:49:26;;;;;;;28.37;21.20;;;17.00;83.10;;;;;;5004091;28;20205;-69
2022/11/02 01:52:07;;;;;;;29.67;21.43;;;16.90;83.20;;;;;;4999028;28;20209;-69
2022/11/02 01:54:50;;;;;;;29.43;20.77;;;16.90;83.30;;;;;;5001724;28;20204;-69
2022/11/02 01:57:20;;;;;;;28.77;21.60;;;16.90;83.40;;;;;;5003004;28;20655;-70
2022/11/02 01:59:59;;;;;;;29.10;20.63;;;16.90;83.30;;;;;;5000779;28;20204;-69
2022/11/02 02:02:27;;;;;;;29.43;21.10;;;16.90;83.30;;;;;;5003965;28;20262;-69
2022/11/02 02:05:17;;;;;;;29.37;19.60;;;16.90;83.30;;;;;;5003873;28;20204;-69
2022/11/02 02:07:45;;;;;;;31.77;22.00;;;16.90;83.30;;;;;;5006940;28;20201;-69
2022/11/02 02:10:12;;;;;;;31.93;21.87;;;16.90;83.30;;;;;;5011550;28;20537;-69
2022/11/02 02:12:41;;;;;;;33.03;21.40;;;16.90;83.30;;;;;;5003750;28;20208;-69
2022/11/02 02:15:10;;;;;;;28.70;20.57;;;16.90;83.40;;;;;;4997501;28;20251;-68
2022/11/02 02:17:57;;;;;;;28.87;21.67;;;16.90;83.40;;;;;;5010542;28;20251;-69
2022/11/02 02:20:43;;;;;;;25.43;20.00;;;16.90;83.50;;;;;;5004254;28;20206;-69
2022/11/02 02:23:22;;;;;;;26.63;21.50;;;16.80;83.60;;;;;;5006109;28;20242;-69
2022/11/02 02:25:59;;;;;;;23.87;21.17;;;16.80;83.60;;;;;;5002063;28;20200;-69
2022/11/02 02:28:50;;;;;;;28.37;21.60;;;16.80;83.70;;;;;;5009793;28;20649;-69
2022/11/02 02:31:27;;;;;;;27.43;21.13;;;16.80;83.80;;;;;;5015249;28;20212;-69
2022/11/02 02:34:14;;;;;;;31.50;22.23;;;16.80;83.90;;;;;;5004501;28;20217;-69
2022/11/02 02:36:56;;;;;;;31.30;22.27;;;16.80;84.00;;;;;;5022169;28;20257;-69
2022/11/02 02:39:33;;;;;;;33.13;23.10;;;16.70;84.00;;;;;;5020111;28;20195;-69
2022/11/02 02:42:27;;;;;;;34.63;23.37;;;16.70;84.10;;;;;;5040909;28;20200;-69
2022/11/02 02:45:26;;;;;;;31.77;22.93;;;16.70;84.30;;;;;;5012131;28;20193;-69
2022/11/02 02:48:12;;;;;;;29.43;22.43;;;16.70;84.40;;;;;;5003845;28;20295;-69
2022/11/02 02:50:48;;;;;;;35.17;23.73;;;16.70;84.50;;;;;;5005307;28;20261;-69
2022/11/02 02:53:23;;;;;;;28.17;23.33;;;16.70;84.50;;;;;;5012934;28;20200;-69
2022/11/02 02:55:51;;;;;;;30.17;22.67;;;16.70;84.60;;;;;;5008359;28;20263;-69
2022/11/02 02:58:26;;;;;;;35.93;24.43;;;16.70;84.60;;;;;;5005224;28;20275;-69
2022/11/02 03:00:53;;;;;;;32.67;23.90;;;16.70;84.70;;;;;;5006394;28;20245;-69
2022/11/02 03:03:27;;;;;;;32.53;23.57;;;16.70;84.80;;;;;;5008432;28;20520;-69
2022/11/02 03:06:02;;;;;;;32.00;22.77;;;16.70;84.90;;;;;;5004422;28;20518;-69
2022/11/02 03:08:31;;;;;;;33.53;24.77;;;16.70;84.90;;;;;;5007261;28;20270;-69
2022/11/02 03:11:11;;;;;;;36.13;24.47;;;16.60;84.80;;;;;;5019149;28;20653;-69
2022/11/02 03:14:05;;;;;;;34.40;24.50;;;16.60;84.80;;;;;;5003714;28;20295;-69
2022/11/02 03:16:33;;;;;;;33.07;23.77;;;16.60;84.80;;;;;;5020069;28;20668;-69
2022/11/02 03:19:23;;;;;;;33.97;24.93;;;16.50;84.80;;;;;;4999594;28;20246;-69
2022/11/02 03:22:24;;;;;;;32.67;23.60;;;16.40;84.80;;;;;;5002742;28;20208;-69
2022/11/02 03:24:59;;;;;;;32.03;24.23;;;16.30;85.00;;;;;;5006105;28;20208;-69
2022/11/02 03:27:54;;;;;;;35.50;24.57;;;16.30;85.00;;;;;;5013022;28;20227;-69
2022/11/02 03:30:25;;;;;;;32.63;25.07;;;16.20;85.10;;;;;;5022450;28;20288;-69
2022/11/02 03:33:11;;;;;;;38.13;24.40;;;16.10;85.10;;;;;;5011051;28;20303;-69
2022/11/02 03:36:01;;;;;;;34.80;24.80;;;16.10;85.20;;;;;;5013439;28;20250;-69
2022/11/02 03:38:51;;;;;;;36.30;24.83;;;16.00;85.30;;;;;;5008222;28;20230;-69
2022/11/02 03:41:21;;;;;;;36.27;26.13;;;15.90;85.50;;;;;;5003127;28;20211;-69
2022/11/02 03:43:54;;;;;;;37.97;25.80;;;15.80;85.70;;;;;;5002553;28;20626;-69
2022/11/02 03:46:22;;;;;;;39.27;27.37;;;15.80;85.80;;;;;;5006353;28;20208;-69
2022/11/02 03:48:51;;;;;;;40.87;27.90;;;15.70;86.00;;;;;;5010980;28;20307;-69
2022/11/02 03:51:21;;;;;;;38.70;27.13;;;15.70;86.30;;;;;;5005735;28;20638;-69
2022/11/02 03:53:57;;;;;;;36.30;25.40;;;15.60;86.30;;;;;;5012652;28;20208;-69
2022/11/02 03:56:47;;;;;;;35.30;27.03;;;15.60;86.60;;;;;;5004942;28;20208;-69
2022/11/02 03:59:14;;;;;;;37.73;26.87;;;15.60;86.60;;;;;;5004685;28;20215;-69
2022/11/02 04:01:45;;;;;;;38.40;27.97;;;15.50;86.60;;;;;;5012852;28;20238;-69
2022/11/02 04:04:13;;;;;;;40.37;28.27;;;15.50;86.70;;;;;;5000384;28;20211;-69
2022/11/02 04:06:44;;;;;;;36.90;27.73;;;15.50;86.90;;;;;;5011233;28;20735;-69
2022/11/02 04:09:11;;;;;;;39.37;28.27;;;15.40;87.10;;;;;;5016809;28;20200;-69
2022/11/02 04:14:37;;;;;;;37.17;29.53;;;15.40;87.40;;;;;;5010695;28;20207;-69
2022/11/02 04:19:57;;;;;;;47.27;29.10;;;15.40;87.90;;;;;;5012589;28;20211;-69
2022/11/02 04:25:19;;;;;;;40.27;29.53;;;15.40;88.30;;;;;;5003462;28;20270;-69
2022/11/02 04:28:12;;;;;;;39.57;27.80;;;15.40;88.40;;;;;;5005508;28;20567;-69
2022/11/02 04:30:53;;;;;;;42.53;30.90;;;15.40;88.60;;;;;;5020289;28;20207;-69
2022/11/02 04:33:32;;;;;;;36.53;27.53;;;15.40;88.60;;;;;;5006981;28;20219;-69
2022/11/02 04:36:06;;;;;;;41.47;28.70;;;15.40;88.70;;;;;;5010760;28;20267;-69
2022/11/02 04:38:40;;;;;;;39.30;29.77;;;15.40;88.70;;;;;;5017157;28;20248;-69
2022/11/02 04:41:41;;;;;;;41.97;30.00;;;15.40;88.80;;;;;;5001274;28;20668;-69
2022/11/02 04:44:19;;;;;;;39.43;28.83;;;15.40;88.80;;;;;;5003173;28;20226;-69
2022/11/02 04:47:03;;;;;;;38.57;29.23;;;15.40;88.90;;;;;;5009881;28;20204;-69
2022/11/02 04:49:33;;;;;;;39.53;28.17;;;15.40;89.00;;;;;;4993310;28;20205;-69
2022/11/02 04:52:01;;;;;;;42.50;29.97;;;15.50;89.10;;;;;;5006547;28;20219;-69
2022/11/02 04:54:30;;;;;;;41.87;29.77;;;15.50;89.20;;;;;;5003798;28;20639;-69
2022/11/02 04:57:00;;;;;;;42.97;29.60;;;15.50;89.20;;;;;;5008492;28;20273;-69
2022/11/02 04:59:29;;;;;;;41.53;28.73;;;15.50;89.20;;;;;;5035181;28;20616;-69
2022/11/02 05:01:57;;;;;;;38.67;27.33;;;15.50;89.20;;;;;;5008823;28;20211;-69
2022/11/02 05:04:24;;;;;;;34.50;27.80;;;15.60;89.20;;;;;;5002125;28;20611;-69
2022/11/02 05:06:51;;;;;;;39.57;27.83;;;15.50;89.10;;;;;;5017393;28;20204;-69
2022/11/02 05:09:23;;;;;;;34.57;26.97;;;15.50;89.10;;;;;;5008134;28;20647;-69
2022/11/02 05:11:51;;;;;;;40.37;30.03;;;15.50;89.10;;;;;;4993887;28;20247;-69
2022/11/02 05:14:18;;;;;;;40.17;30.10;;;15.40;89.10;;;;;;5000620;28;20283;-69
2022/11/02 05:16:45;;;;;;;41.37;29.40;;;15.40;89.20;;;;;;5003728;28;20287;-69
2022/11/02 05:19:13;;;;;;;38.83;29.30;;;15.30;89.20;;;;;;5006449;28;20222;-69
2022/11/02 05:21:40;;;;;;;39.17;29.13;;;15.40;89.40;;;;;;5002424;28;20203;-69
2022/11/02 05:24:07;;;;;;;36.33;28.30;;;15.30;89.40;;;;;;5003361;28;20313;-69
2022/11/02 05:26:35;;;;;;;41.57;29.50;;;15.30;89.50;;;;;;4995806;28;20214;-69
2022/11/02 05:29:03;;;;;;;42.07;29.00;;;15.30;89.60;;;;;;5019398;28;20215;-70
2022/11/02 05:31:30;;;;;;;44.00;29.83;;;15.20;89.60;;;;;;5008514;28;20237;-70
2022/11/02 05:33:58;;;;;;;43.00;29.13;;;15.20;89.70;;;;;;5007307;28;20218;-70
2022/11/02 05:36:25;;;;;;;42.63;30.03;;;15.10;89.80;;;;;;5000815;28;20239;-70
2022/11/02 05:38:55;;;;;;;40.43;28.03;;;15.10;89.90;;;;;;5004784;28;20219;-70
2022/11/02 05:41:23;;;;;;;38.60;27.03;;;15.10;90.00;;;;;;5004697;28;20207;-70
2022/11/02 05:43:53;;;;;;;43.87;29.50;;;15.10;90.00;;;;;;5004122;28;20203;-69
2022/11/02 05:46:22;;;;;;;41.40;28.90;;;15.00;90.00;;;;;;5020098;28;20204;-69
2022/11/02 05:48:49;;;;;;;42.30;27.37;;;15.00;90.10;;;;;;5010054;28;20224;-70
2022/11/02 05:51:16;;;;;;;47.03;28.43;;;15.10;90.20;;;;;;4998644;28;20702;-69
2022/11/02 05:53:43;;;;;;;40.13;27.70;;;15.10;90.20;;;;;;4997110;28;20339;-70
2022/11/02 05:56:11;;;;;;;41.23;28.93;;;15.10;90.30;;;;;;5000013;28;20208;-69
2022/11/02 05:58:38;;;;;;;46.53;28.27;;;15.20;90.30;;;;;;5004403;28;20627;-70
2022/11/02 06:01:07;;;;;;;38.33;26.90;;;15.20;90.30;;;;;;4997451;28;20209;-69
2022/11/02 06:03:35;;;;;;;47.40;27.60;;;15.30;90.40;;;;;;5001819;28;20625;-69
2022/11/02 06:06:05;;;;;;;43.77;27.33;;;15.30;90.40;;;;;;5004318;28;20265;-70
2022/11/02 06:08:36;;;;;;;40.80;28.83;;;15.30;90.40;;;;;;5005635;28;20196;-70
2022/11/02 06:11:08;;;;;;;43.13;27.83;;;15.40;90.40;;;;;;5009392;28;20192;-69
2022/11/02 06:13:36;;;;;;;37.53;26.80;;;15.40;90.70;;;;;;5006904;28;20204;-69
2022/11/02 06:16:05;;;;;;;42.80;27.87;;;15.50;90.30;;;;;;5005950;28;20218;-69
2022/11/02 06:18:32;;;;;;;47.00;28.67;;;15.50;90.30;;;;;;5006775;28;20226;-70
2022/11/02 06:21:00;;;;;;;42.53;29.27;;;15.50;90.30;;;;;;5003823;28;20205;-69
2022/11/02 06:23:28;;;;;;;39.37;27.20;;;15.60;90.20;;;;;;5002599;28;20618;-69
2022/11/02 06:25:57;;;;;;;35.40;27.57;;;15.70;90.20;;;;;;5006766;28;20274;-69
2022/11/02 06:28:25;;;;;;;44.37;28.73;;;15.70;90.20;;;;;;5011248;28;20207;-70
2022/11/02 06:30:53;;;;;;;40.50;27.93;;;15.80;90.10;;;;;;5007501;28;20654;-69
2022/11/02 06:33:21;;;;;;;40.73;27.97;;;15.80;90.10;;;;;;5005732;28;20319;-69
2022/11/02 06:35:50;;;;;;;39.23;27.93;;;15.90;90.00;;;;;;5006689;28;20564;-69
2022/11/02 06:38:18;;;;;;;41.27;28.93;;;15.90;90.00;;;;;;5000398;28;20293;-69
2022/11/02 06:41:01;;;;;;;39.63;28.73;;;15.90;90.00;;;;;;5005341;28;20595;-69
2022/11/02 06:43:28;;;;;;;42.23;29.57;;;15.90;89.90;;;;;;5014244;28;20211;-69
2022/11/02 06:45:57;;;;;;;38.63;27.43;;;16.00;89.80;;;;;;5011278;28;20510;-69
2022/11/02 06:48:26;;;;;;;46.00;28.63;;;16.00;89.70;;;;;;5002647;28;20215;-69
2022/11/02 06:51:01;;;;;;;43.13;30.00;;;16.00;89.60;;;;;;5003105;28;20196;-69
2022/11/02 06:53:29;;;;;;;48.97;28.83;;;16.00;89.40;;;;;;5004390;28;20228;-69
2022/11/02 06:55:57;;;;;;;46.10;28.47;;;16.10;89.40;;;;;;5006560;28;20219;-70
2022/11/02 06:58:25;;;;;;;47.80;29.17;;;16.10;89.30;;;;;;5001287;28;20240;-69
2022/11/02 07:01:02;;;;;;;44.00;28.00;;;16.10;89.20;;;;;;5004151;28;20266;-69
2022/11/02 07:03:30;;;;;;;42.37;29.00;;;16.20;89.20;;;;;;5003808;28;20537;-69
2022/11/02 07:05:58;;;;;;;45.97;29.07;;;16.20;89.00;;;;;;4999073;28;20204;-69
2022/11/02 07:08:26;;;;;;;47.47;28.97;;;16.20;88.70;;;;;;5010248;28;20596;-69
2022/11/02 07:10:54;;;;;;;43.07;28.70;;;16.20;88.50;;;;;;5004036;28;20244;-69
2022/11/02 07:13:21;;;;;;;41.20;30.07;;;16.20;88.30;;;;;;4998616;28;20213;-70
2022/11/02 07:15:52;;;;;;;41.40;29.10;;;16.20;88.10;;;;;;5001149;28;20208;-69
2022/11/02 07:18:19;;;;;;;45.87;28.80;;;16.30;88.00;;;;;;5003799;28;20262;-69
2022/11/02 07:20:46;;;;;;;36.93;26.93;;;16.40;87.70;;;;;;5003809;28;20199;-69
2022/11/02 07:23:13;;;;;;;39.17;26.90;;;16.50;86.80;;;;;;5000978;28;20307;-69
2022/11/02 07:25:40;;;;;;;40.10;28.20;;;16.50;86.60;;;;;;5006679;28;20197;-69
2022/11/02 07:28:08;;;;;;;39.57;28.10;;;16.50;86.40;;;;;;5002234;28;20196;-69
2022/11/02 07:30:35;;;;;;;41.63;28.73;;;16.50;86.50;;;;;;5002558;28;20214;-69
2022/11/02 07:33:03;;;;;;;40.13;27.13;;;16.50;86.60;;;;;;5004045;28;20249;-71
2022/11/02 07:35:32;;;;;;;41.00;29.50;;;16.50;86.80;;;;;;5002852;28;20196;-66
2022/11/02 07:38:02;;;;;;;40.77;27.33;;;16.60;86.80;;;;;;5012271;28;20703;-65
2022/11/02 07:40:30;;;;;;;37.70;27.53;;;16.70;87.00;;;;;;5002366;28;20207;-69
2022/11/02 07:42:58;;;;;;;42.73;26.67;;;16.80;87.00;;;;;;5001359;28;20563;-68
2022/11/02 07:45:41;;;;;;;41.20;27.00;;;16.90;86.40;;;;;;4998329;28;20379;-70
2022/11/02 07:48:08;;;;;;;42.80;27.97;;;17.00;85.90;;;;;;5003266;28;20680;-69
2022/11/02 07:50:35;;;;;;;40.33;29.07;;;17.10;85.60;;;;;;5002169;28;20201;-66
2022/11/02 07:53:03;;;;;;;38.50;27.77;;;17.20;85.70;;;;;;4997415;28;20208;-66
2022/11/02 07:55:31;;;;;;;43.67;29.60;;;17.20;85.70;;;;;;5005847;28;20204;-67
2022/11/02 07:58:01;;;;;;;43.00;30.23;;;17.30;85.70;;;;;;5017300;28;20271;-70
2022/11/02 08:00:33;;;;;;;43.00;29.80;;;17.30;85.50;;;;;;5004548;28;20200;-65
2022/11/02 08:03:01;;;;;;;38.40;29.03;;;17.30;85.60;;;;;;5005626;28;20208;-71
2022/11/02 08:05:30;;;;;;;44.87;29.33;;;17.50;85.90;;;;;;4998996;28;20255;-67
2022/11/02 08:07:58;;;;;;;39.93;30.23;;;17.60;85.70;;;;;;5002521;28;20197;-70
2022/11/02 08:10:27;;;;;;;47.13;29.90;;;17.80;85.10;;;;;;5003457;28;20206;-68
2022/11/02 08:12:55;;;;;;;44.47;30.90;;;18.00;84.50;;;;;;5001871;28;20199;-68
2022/11/02 08:15:23;;;;;;;41.17;32.50;;;18.20;84.00;;;;;;5001474;28;20208;-67
2022/11/02 08:18:01;;;;;;;43.37;31.63;;;18.40;82.90;;;;;;5005805;28;20210;-67
2022/11/02 08:20:30;;;;;;;39.47;28.40;;;18.50;82.20;;;;;;5018859;28;20229;-70
2022/11/02 08:22:57;;;;;;;42.03;31.07;;;18.60;81.30;;;;;;5002115;28;20238;-69
2022/11/02 08:25:24;;;;;;;35.73;27.67;;;18.60;80.80;;;;;;5005969;28;20233;-70
2022/11/02 08:27:57;;;;;;;42.20;29.23;;;18.60;80.60;;;;;;5004232;28;20229;-67
2022/11/02 08:30:26;;;;;;;37.80;26.37;;;18.60;80.80;;;;;;5002574;28;20220;-67
2022/11/02 08:32:53;;;;;;;36.37;27.30;;;18.70;80.70;;;;;;5004983;28;20209;-71
2022/11/02 08:35:23;;;;;;;36.20;25.90;;;18.70;80.70;;;;;;5003842;28;20263;-68
2022/11/02 08:37:55;;;;;;;36.20;27.13;;;18.70;80.60;;;;;;5005090;28;20232;-69
2022/11/02 08:40:22;;;;;;;36.37;25.87;;;18.80;80.00;;;;;;5000418;28;20217;-66
2022/11/02 08:42:55;;;;;;;33.90;26.40;;;18.90;79.60;;;;;;5000889;28;20656;-66
2022/11/02 08:45:22;;;;;;;33.87;26.40;;;18.90;79.20;;;;;;5003863;28;20517;-66
2022/11/02 08:47:49;;;;;;;36.73;26.17;;;19.00;79.20;;;;;;5002525;28;20202;-65
2022/11/02 08:50:16;;;;;;;33.70;25.97;;;19.10;78.70;;;;;;5001736;28;20211;-67
2022/11/02 08:52:43;;;;;;;34.03;26.73;;;19.10;78.40;;;;;;5001126;28;20209;-67
2022/11/02 08:55:10;;;;;;;33.20;25.60;;;19.20;78.70;;;;;;5005268;28;20612;-67
2022/11/02 08:57:54;;;;;;;32.83;25.47;;;19.40;78.70;;;;;;4997155;28;20246;-67
2022/11/02 09:00:25;;;;;;;33.47;25.70;;;19.50;78.20;;;;;;5000100;28;20253;-68
2022/11/02 09:03:00;;;;;;;31.97;25.73;;;19.70;77.70;;;;;;5001921;28;20214;-68
2022/11/02 09:05:28;;;;;;;38.00;25.57;;;19.80;77.30;;;;;;4999125;28;20210;-69
2022/11/02 09:08:04;;;;;;;33.53;24.97;;;19.80;77.30;;;;;;4998636;28;20233;-67
2022/11/02 09:10:34;;;;;;;33.77;27.47;;;19.90;77.40;;;;;;5006053;28;20211;-68
2022/11/02 09:13:03;;;;;;;34.80;25.57;;;20.00;77.10;;;;;;5003697;28;20210;-68
2022/11/02 09:15:33;;;;;;;31.80;25.23;;;20.20;76.60;;;;;;5002661;28;20835;-70
2022/11/02 09:18:00;;;;;;;30.37;25.10;;;20.40;75.90;;;;;;5004139;28;20215;-70
2022/11/02 09:20:28;;;;;;;31.77;23.03;;;20.60;75.60;;;;;;5001517;28;20300;-67
2022/11/02 09:22:55;;;;;;;33.43;24.40;;;20.80;75.30;;;;;;5006080;28;20615;-67
2022/11/02 09:25:22;;;;;;;30.83;23.33;;;20.90;74.70;;;;;;5003361;28;20551;-67
2022/11/02 09:27:53;;;;;;;31.47;24.23;;;21.10;74.00;;;;;;5002079;28;20219;-67
2022/11/02 09:30:23;;;;;;;31.97;23.83;;;21.10;72.70;;;;;;4999991;28;20227;-69
2022/11/02 09:33:01;;;;;;;29.43;23.37;;;21.10;73.00;;;;;;5002515;28;20270;-65
2022/11/02 09:35:33;;;;;;;33.13;26.07;;;21.10;73.30;;;;;;5002139;28;20660;-67
2022/11/02 09:38:00;;;;;;;30.63;22.80;;;21.10;73.40;;;;;;5001187;28;20277;-66
2022/11/02 09:40:38;;;;;;;32.13;25.17;;;21.20;73.60;;;;;;5000400;28;20220;-68
2022/11/02 09:43:13;;;;;;;33.73;24.47;;;21.20;72.60;;;;;;5003013;28;20250;-67
2022/11/02 09:45:58;;;;;;;32.70;24.70;;;21.20;72.50;;;;;;5002319;28;20307;-66
2022/11/02 09:48:32;;;;;;;35.20;24.17;;;21.10;72.70;;;;;;5003454;28;20200;-66
2022/11/02 09:51:18;;;;;;;33.87;23.67;;;21.20;72.60;;;;;;5000396;28;20195;-67
2022/11/02 09:53:54;;;;;;;29.87;24.20;;;21.20;72.50;;;;;;5003533;28;20645;-66
2022/11/02 09:56:21;;;;;;;31.47;22.67;;;21.10;72.90;;;;;;5000785;28;20204;-67
2022/11/02 09:58:58;;;;;;;28.23;23.10;;;21.10;72.70;;;;;;5001786;28;20189;-67
2022/11/02 10:01:42;;;;;;;28.83;22.73;;;21.10;73.30;;;;;;4998599;28;20207;-67
2022/11/02 10:04:15;;;;;;;30.70;24.23;;;21.20;73.20;;;;;;5004845;28;20196;-67
2022/11/02 10:06:50;;;;;;;29.87;23.80;;;21.30;72.40;;;;;;5000465;28;20707;-67
2022/11/02 10:09:52;;;;;;;30.20;22.30;;;21.40;72.10;;;;;;5003598;28;20202;-66
2022/11/02 10:12:35;;;;;;;30.73;23.53;;;21.60;71.50;;;;;;5001769;28;20207;-66
2022/11/02 10:15:10;;;;;;;32.27;22.77;;;21.60;71.20;;;;;;4999329;28;20736;-65
2022/11/02 10:17:40;;;;;;;29.10;23.10;;;21.70;71.10;;;;;;5003264;28;20208;-67
2022/11/02 10:20:25;;;;;;;37.40;24.37;;;21.70;70.40;;;;;;5009731;28;20293;-68
2022/11/02 10:23:02;;;;;;;32.17;23.90;;;21.80;70.20;;;;;;5005164;28;20274;-68
2022/11/02 10:25:30;;;;;;;29.27;23.77;;;21.80;69.70;;;;;;5001775;28;20204;-68
2022/11/02 10:28:11;;;;;;;31.03;24.50;;;21.70;69.70;;;;;;5006070;28;20230;-66
2022/11/02 10:30:38;;;;;;;31.50;23.20;;;21.60;69.80;;;;;;5001445;28;20230;-65
2022/11/02 10:33:17;;;;;;;35.50;22.40;;;21.50;70.10;;;;;;5005008;28;20222;-66
2022/11/02 10:35:50;;;;;;;34.37;22.60;;;21.50;70.50;;;;;;5004685;28;20204;-64
2022/11/02 10:39:08;;;;;;;28.13;21.83;;;21.50;70.50;;;;;;5001152;28;20231;-69
2022/11/02 10:41:56;;;;;;;29.77;23.17;;;21.40;70.50;;;;;;5002294;28;20208;-65
2022/11/02 10:44:46;;;;;;;31.87;23.00;;;21.30;70.70;;;;;;5004671;28;20646;-65
2022/11/02 10:47:19;;;;;;;32.17;22.27;;;21.10;70.90;;;;;;4995880;28;20656;-67
2022/11/02 10:50:08;;;;;;;29.07;21.00;;;21.00;71.40;;;;;;5002236;28;20197;-67
2022/11/02 10:52:42;;;;;;;32.03;20.07;;;20.90;72.10;;;;;;5006212;28;20225;-67
2022/11/02 10:55:40;;;;;;;28.77;20.80;;;20.90;72.00;;;;;;5034431;28;20211;-66
2022/11/02 10:58:15;;;;;;;29.30;19.83;;;20.90;71.90;;;;;;5006544;28;20572;-66
2022/11/02 11:00:43;;;;;;;26.77;19.63;;;20.80;72.20;;;;;;5005278;28;20342;-66
2022/11/02 11:03:19;;;;;;;26.67;19.03;;;20.70;72.50;;;;;;5004963;28;20203;-66
2022/11/02 11:05:49;;;;;;;27.07;19.13;;;20.80;73.00;;;;;;5007012;28;20210;-66
2022/11/02 11:08:29;;;;;;;30.50;20.57;;;20.80;72.40;;;;;;5003101;28;20290;-67
2022/11/02 11:11:09;;;;;;;32.03;20.87;;;20.90;72.30;;;;;;5005618;28;20200;-66
2022/11/02 11:13:36;;;;;;;26.13;19.00;;;21.00;72.40;;;;;;5005235;28;20235;-66
2022/11/02 11:16:44;;;;;;;28.90;20.07;;;21.10;72.20;;;;;;5007711;28;20207;-66
2022/11/02 11:19:27;;;;;;;28.83;20.30;;;21.40;71.70;;;;;;5005124;28;20220;-67
2022/11/02 11:22:31;;;;;;;29.33;20.30;;;21.60;70.90;;;;;;5006101;28;20254;-67
2022/11/02 11:25:24;;;;;;;32.13;19.90;;;21.80;69.40;;;;;;5007133;28;20204;-67
2022/11/02 11:27:56;;;;;;;34.20;22.13;;;21.80;69.20;;;;;;5003481;28;20208;-67
2022/11/02 11:30:36;;;;;;;33.40;24.00;;;21.80;68.60;;;;;;5003172;28;20220;-67
2022/11/02 11:33:23;;;;;;;31.67;20.87;;;21.70;68.60;;;;;;5006039;28;20212;-67
2022/11/02 11:35:51;;;;;;;28.37;20.50;;;21.50;69.10;;;;;;5005882;28;20213;-67
2022/11/02 11:38:26;;;;;;;24.43;19.43;;;21.30;69.90;;;;;;5001444;28;20208;-67
2022/11/02 11:40:58;;;;;;;26.40;18.83;;;21.20;70.50;;;;;;5006432;28;20285;-67
2022/11/02 11:43:29;;;;;;;24.73;18.73;;;21.10;70.60;;;;;;5002660;28;20678;-70
2022/11/02 11:46:01;;;;;;;27.60;19.00;;;21.10;70.70;;;;;;5001818;28;20196;-67
2022/11/02 11:48:39;;;;;;;24.63;18.80;;;21.00;70.80;;;;;;5035454;28;20679;-67
2022/11/02 11:51:34;;;;;;;26.37;19.77;;;20.90;71.00;;;;;;5006131;28;20200;-67
2022/11/02 11:54:14;;;;;;;27.77;18.50;;;20.80;71.20;;;;;;5002906;28;20219;-67
2022/11/02 11:56:41;;;;;;;30.03;17.90;;;20.60;71.30;;;;;;5005879;28;20214;-67
2022/11/02 11:59:45;;;;;;;22.70;17.80;;;20.60;71.50;;;;;;5004426;28;20200;-67
2022/11/02 12:02:32;;;;;;;31.00;19.40;;;20.40;71.70;;;;;;5008716;28;20244;-67
2022/11/02 12:05:14;;;;;;;27.17;18.73;;;20.30;72.20;;;;;;5003359;28;20200;-67
2022/11/02 12:07:52;;;;;;;28.90;20.17;;;20.20;72.30;;;;;;5004686;28;20210;-67
2022/11/02 12:10:36;;;;;;;29.67;18.57;;;20.10;72.90;;;;;;5007978;28;20230;-67
2022/11/02 12:13:18;;;;;;;29.27;19.20;;;20.00;72.90;;;;;;5006181;28;20641;-67
2022/11/02 12:16:00;;;;;;;28.33;19.40;;;20.00;73.10;;;;;;5003277;28;20199;-67
2022/11/02 12:18:36;;;;;;;29.23;20.63;;;20.00;73.90;;;;;;5009090;28;20268;-67
2022/11/02 12:21:06;;;;;;;30.30;20.83;;;19.90;73.50;;;;;;5003791;28;20207;-67
2022/11/02 12:23:51;;;;;;;30.07;21.57;;;19.90;73.70;;;;;;5000010;28;20246;-67
2022/11/02 12:26:40;;;;;;;29.23;21.10;;;19.90;73.90;;;;;;5012276;28;20573;-67
2022/11/02 12:29:33;;;;;;;34.33;22.67;;;19.90;74.10;;;;;;5006193;28;20199;-66
2022/11/02 12:32:25;;;;;;;35.77;23.07;;;19.90;74.40;;;;;;4999625;28;20699;-66
2022/11/02 12:35:12;;;;;;;36.03;25.37;;;19.90;74.50;;;;;;5002507;28;20203;-66
2022/11/02 12:38:21;;;;;;;33.50;23.57;;;20.00;74.40;;;;;;5002808;28;20203;-66
2022/11/02 12:41:06;;;;;;;37.60;22.97;;;20.00;74.40;;;;;;5003450;28;20575;-66
2022/11/02 12:43:41;;;;;;;37.90;25.37;;;20.00;74.60;;;;;;5001668;28;20208;-66
2022/11/02 12:46:30;;;;;;;37.40;25.53;;;20.00;74.60;;;;;;5004934;28;20633;-66
2022/11/02 12:49:19;;;;;;;38.00;24.30;;;20.00;74.20;;;;;;5007245;28;20672;-66
2022/11/02 12:52:01;;;;;;;40.27;26.40;;;20.00;74.30;;;;;;5004693;28;20222;-66
2022/11/02 12:54:53;;;;;;;41.07;27.53;;;20.00;74.20;;;;;;5001708;28;20207;-67
2022/11/02 12:57:27;;;;;;;42.80;26.27;;;20.00;74.20;;;;;;5004412;28;20598;-67
2022/11/02 13:00:00;;;;;;;40.17;26.63;;;20.00;74.20;;;;;;5030935;28;20220;-65
2022/11/02 13:02:32;;;;;;;41.17;27.93;;;19.90;74.20;;;;;;5001926;28;20272;-69
2022/11/02 13:05:08;;;;;;;56.10;31.53;;;19.90;74.40;;;;;;5003211;28;20200;-67
2022/11/02 13:07:51;;;;;;;51.23;32.87;;;19.90;74.60;;;;;;5003050;28;20195;-68
2022/11/02 13:10:34;;;;;;;53.23;31.90;;;19.80;75.00;;;;;;5011362;28;20254;-65